sensor_id;sensor_type;location;lat;lon;timestamp;temperature;humidity
8856;DHT22;4464;50.882;4.730;2022-07-26T00:01:29;18.00;99.90
8856;DHT22;4464;50.882;4.730;2022-07-26T00:03:59;18.00;99.90
8856;DHT22;4464;50.882;4.730;2022-07-26T00:06:27;18.00;99.90
8856;DHT22;4464;50.882;4.730;2022-07-26T00:08:58;18.00;99.90
8856;DHT22;4464;50.882;4.730;2022-07-26T00:11:27;17.90;99.90
8856;DHT22;4464;50.882;4.730;2022-07-26T00:13:56;17.90;99.90
8856;DHT22;4464;50.882;4.730;2022-07-26T00:16:21;17.80;99.90
8856;DHT22;4464;50.882;4.730;2022-07-26T00:18:47;17.80;99.90
8856;DHT22;4464;50.882;4.730;2022-07-26T00:21:16;17.80;99.90
8856;DHT22;4464;50.882;4.730;2022-07-26T00:23:44;17.80;99.90
8856;DHT22;4464;50.882;4.730;2022-07-26T00:26:12;17.70;99.90
8856;DHT22;4464;50.882;4.730;2022-07-26T00:28:39;17.70;99.90
8856;DHT22;4464;50.882;4.730;2022-07-26T00:31:08;17.70;99.90
8856;DHT22;4464;50.882;4.730;2022-07-26T00:33:36;17.60;99.90
8856;DHT22;4464;50.882;4.730;2022-07-26T00:36:02;17.60;99.90
8856;DHT22;4464;50.882;4.730;2022-07-26T00:38:28;17.60;99.90
8856;DHT22;4464;50.882;4.730;2022-07-26T00:40:54;17.60;99.90
8856;DHT22;4464;50.882;4.730;2022-07-26T00:43:19;17.50;99.90
8856;DHT22;4464;50.882;4.730;2022-07-26T00:45:45;17.50;99.90
8856;DHT22;4464;50.882;4.730;2022-07-26T00:48:11;17.50;99.90
8856;DHT22;4464;50.882;4.730;2022-07-26T00:50:39;17.50;99.90
8856;DHT22;4464;50.882;4.730;2022-07-26T00:53:07;17.40;99.90
8856;DHT22;4464;50.882;4.730;2022-07-26T00:55:35;17.50;99.90
8856;DHT22;4464;50.882;4.730;2022-07-26T00:58:01;17.50;99.90
8856;DHT22;4464;50.882;4.730;2022-07-26T01:00:27;17.40;99.90
8856;DHT22;4464;50.882;4.730;2022-07-26T01:02:58;17.40;99.90
8856;DHT22;4464;50.882;4.730;2022-07-26T01:05:25;17.40;99.90
8856;DHT22;4464;50.882;4.730;2022-07-26T01:07:52;17.40;99.90
8856;DHT22;4464;50.882;4.730;2022-07-26T01:10:18;17.40;99.90
8856;DHT22;4464;50.882;4.730;2022-07-26T01:12:45;17.40;99.90
8856;DHT22;4464;50.882;4.730;2022-07-26T01:15:13;17.40;99.90
8856;DHT22;4464;50.882;4.730;2022-07-26T01:17:39;17.40;99.90
8856;DHT22;4464;50.882;4.730;2022-07-26T01:20:07;17.40;99.90
8856;DHT22;4464;50.882;4.730;2022-07-26T01:22:33;17.40;99.90
8856;DHT22;4464;50.882;4.730;2022-07-26T01:25:00;17.40;99.90
8856;DHT22;4464;50.882;4.730;2022-07-26T01:27:26;17.50;99.90
8856;DHT22;4464;50.882;4.730;2022-07-26T01:29:52;17.60;99.90
8856;DHT22;4464;50.882;4.730;2022-07-26T01:32:18;17.60;99.90
8856;DHT22;4464;50.882;4.730;2022-07-26T01:34:45;17.70;99.90
8856;DHT22;4464;50.882;4.730;2022-07-26T01:37:11;17.70;99.90
8856;DHT22;4464;50.882;4.730;2022-07-26T01:39:37;17.70;99.90
8856;DHT22;4464;50.882;4.730;2022-07-26T01:42:05;17.80;99.90
8856;DHT22;4464;50.882;4.730;2022-07-26T01:44:36;17.80;99.90
8856;DHT22;4464;50.882;4.730;2022-07-26T01:47:04;17.80;99.90
8856;DHT22;4464;50.882;4.730;2022-07-26T01:49:30;17.70;99.90
8856;DHT22;4464;50.882;4.730;2022-07-26T01:51:56;17.70;99.90
8856;DHT22;4464;50.882;4.730;2022-07-26T01:54:22;17.70;99.90
8856;DHT22;4464;50.882;4.730;2022-07-26T01:56:52;17.70;99.90
8856;DHT22;4464;50.882;4.730;2022-07-26T01:59:18;17.70;99.90
8856;DHT22;4464;50.882;4.730;2022-07-26T02:01:46;17.70;99.90
8856;DHT22;4464;50.882;4.730;2022-07-26T02:04:12;17.80;99.90
8856;DHT22;4464;50.882;4.730;2022-07-26T02:06:58;17.80;99.90
8856;DHT22;4464;50.882;4.730;2022-07-26T02:09:24;17.80;99.90
8856;DHT22;4464;50.882;4.730;2022-07-26T02:11:49;17.80;99.90
8856;DHT22;4464;50.882;4.730;2022-07-26T02:14:15;17.80;99.90
8856;DHT22;4464;50.882;4.730;2022-07-26T02:16:43;17.90;99.90
8856;DHT22;4464;50.882;4.730;2022-07-26T02:19:12;17.90;99.90
8856;DHT22;4464;50.882;4.730;2022-07-26T02:21:40;17.90;99.90
8856;DHT22;4464;50.882;4.730;2022-07-26T02:24:06;18.00;99.90
8856;DHT22;4464;50.882;4.730;2022-07-26T02:26:33;18.00;99.90
8856;DHT22;4464;50.882;4.730;2022-07-26T02:29:00;17.90;99.90
8856;DHT22;4464;50.882;4.730;2022-07-26T02:31:27;17.90;99.90
8856;DHT22;4464;50.882;4.730;2022-07-26T02:33:52;17.90;99.90
8856;DHT22;4464;50.882;4.730;2022-07-26T02:36:18;17.90;99.90
8856;DHT22;4464;50.882;4.730;2022-07-26T02:38:44;18.00;99.90
8856;DHT22;4464;50.882;4.730;2022-07-26T02:41:12;18.00;99.90
8856;DHT22;4464;50.882;4.730;2022-07-26T02:43:38;18.00;99.90
8856;DHT22;4464;50.882;4.730;2022-07-26T02:46:05;18.10;99.90
8856;DHT22;4464;50.882;4.730;2022-07-26T02:48:31;18.10;99.90
8856;DHT22;4464;50.882;4.730;2022-07-26T02:50:57;18.10;99.90
8856;DHT22;4464;50.882;4.730;2022-07-26T02:53:23;18.10;99.90
8856;DHT22;4464;50.882;4.730;2022-07-26T02:55:49;18.10;99.90
8856;DHT22;4464;50.882;4.730;2022-07-26T02:58:15;18.20;99.90
8856;DHT22;4464;50.882;4.730;2022-07-26T03:00:41;18.20;99.90
8856;DHT22;4464;50.882;4.730;2022-07-26T03:03:07;18.20;99.90
8856;DHT22;4464;50.882;4.730;2022-07-26T03:05:35;18.20;99.90
8856;DHT22;4464;50.882;4.730;2022-07-26T03:08:03;18.20;99.90
8856;DHT22;4464;50.882;4.730;2022-07-26T03:10:29;18.20;99.90
8856;DHT22;4464;50.882;4.730;2022-07-26T03:12:57;18.20;99.90
8856;DHT22;4464;50.882;4.730;2022-07-26T03:15:26;18.20;99.90
8856;DHT22;4464;50.882;4.730;2022-07-26T03:17:52;18.20;99.90
8856;DHT22;4464;50.882;4.730;2022-07-26T03:20:18;18.20;99.90
8856;DHT22;4464;50.882;4.730;2022-07-26T03:22:44;18.20;99.90
8856;DHT22;4464;50.882;4.730;2022-07-26T03:25:12;18.20;99.90
8856;DHT22;4464;50.882;4.730;2022-07-26T03:27:40;18.20;99.90
8856;DHT22;4464;50.882;4.730;2022-07-26T03:30:07;18.20;99.90
8856;DHT22;4464;50.882;4.730;2022-07-26T03:32:35;18.10;99.90
8856;DHT22;4464;50.882;4.730;2022-07-26T03:35:01;18.20;99.90
8856;DHT22;4464;50.882;4.730;2022-07-26T03:37:29;18.20;99.90
8856;DHT22;4464;50.882;4.730;2022-07-26T03:39:56;18.20;99.90
8856;DHT22;4464;50.882;4.730;2022-07-26T03:42:24;18.20;99.90
8856;DHT22;4464;50.882;4.730;2022-07-26T03:44:50;18.20;99.90
8856;DHT22;4464;50.882;4.730;2022-07-26T03:47:15;18.20;99.90
8856;DHT22;4464;50.882;4.730;2022-07-26T03:49:41;18.20;99.90
8856;DHT22;4464;50.882;4.730;2022-07-26T03:52:12;18.20;99.90
8856;DHT22;4464;50.882;4.730;2022-07-26T03:54:39;18.10;99.90
8856;DHT22;4464;50.882;4.730;2022-07-26T03:57:06;18.20;99.90
8856;DHT22;4464;50.882;4.730;2022-07-26T03:59:31;18.10;99.90
8856;DHT22;4464;50.882;4.730;2022-07-26T04:01:57;18.20;99.90
8856;DHT22;4464;50.882;4.730;2022-07-26T04:04:26;18.20;99.90
8856;DHT22;4464;50.882;4.730;2022-07-26T04:06:52;18.20;99.90
8856;DHT22;4464;50.882;4.730;2022-07-26T04:09:20;18.20;99.90
8856;DHT22;4464;50.882;4.730;2022-07-26T04:11:48;18.10;99.90
8856;DHT22;4464;50.882;4.730;2022-07-26T04:14:14;18.20;99.90
8856;DHT22;4464;50.882;4.730;2022-07-26T04:16:40;18.10;99.90
8856;DHT22;4464;50.882;4.730;2022-07-26T04:19:06;18.00;99.90
8856;DHT22;4464;50.882;4.730;2022-07-26T04:21:32;18.00;99.90
8856;DHT22;4464;50.882;4.730;2022-07-26T04:23:58;18.10;99.90
8856;DHT22;4464;50.882;4.730;2022-07-26T04:26:26;18.20;99.90
8856;DHT22;4464;50.882;4.730;2022-07-26T04:28:54;18.20;99.90
8856;DHT22;4464;50.882;4.730;2022-07-26T04:31:19;18.20;99.90
8856;DHT22;4464;50.882;4.730;2022-07-26T04:33:47;18.20;99.90
8856;DHT22;4464;50.882;4.730;2022-07-26T04:36:14;18.30;99.90
8856;DHT22;4464;50.882;4.730;2022-07-26T04:38:43;18.20;99.90
8856;DHT22;4464;50.882;4.730;2022-07-26T04:41:09;18.20;99.90
8856;DHT22;4464;50.882;4.730;2022-07-26T04:43:37;18.30;99.90
8856;DHT22;4464;50.882;4.730;2022-07-26T04:46:03;18.30;99.90
8856;DHT22;4464;50.882;4.730;2022-07-26T04:48:30;18.20;99.90
8856;DHT22;4464;50.882;4.730;2022-07-26T04:50:56;18.20;99.90
8856;DHT22;4464;50.882;4.730;2022-07-26T04:53:22;18.20;99.90
8856;DHT22;4464;50.882;4.730;2022-07-26T04:55:48;18.20;99.90
8856;DHT22;4464;50.882;4.730;2022-07-26T04:58:14;18.20;99.90
8856;DHT22;4464;50.882;4.730;2022-07-26T05:00:40;18.10;99.90
8856;DHT22;4464;50.882;4.730;2022-07-26T05:03:06;18.10;99.90
8856;DHT22;4464;50.882;4.730;2022-07-26T05:05:32;18.10;99.90
8856;DHT22;4464;50.882;4.730;2022-07-26T05:08:03;18.00;99.90
8856;DHT22;4464;50.882;4.730;2022-07-26T05:10:35;18.10;99.90
8856;DHT22;4464;50.882;4.730;2022-07-26T05:13:02;18.10;99.90
8856;DHT22;4464;50.882;4.730;2022-07-26T05:15:32;18.10;99.90
8856;DHT22;4464;50.882;4.730;2022-07-26T05:18:08;18.10;99.90
8856;DHT22;4464;50.882;4.730;2022-07-26T05:20:38;18.20;99.90
8856;DHT22;4464;50.882;4.730;2022-07-26T05:23:04;18.10;99.90
8856;DHT22;4464;50.882;4.730;2022-07-26T05:25:30;18.10;99.90
8856;DHT22;4464;50.882;4.730;2022-07-26T05:27:58;18.10;99.90
8856;DHT22;4464;50.882;4.730;2022-07-26T05:30:25;18.10;99.90
8856;DHT22;4464;50.882;4.730;2022-07-26T05:32:51;18.20;99.90
8856;DHT22;4464;50.882;4.730;2022-07-26T05:35:16;18.20;99.90
8856;DHT22;4464;50.882;4.730;2022-07-26T05:37:42;18.20;99.90
8856;DHT22;4464;50.882;4.730;2022-07-26T05:40:13;18.20;99.90
8856;DHT22;4464;50.882;4.730;2022-07-26T05:42:39;18.30;99.90
8856;DHT22;4464;50.882;4.730;2022-07-26T05:45:06;18.20;99.90
8856;DHT22;4464;50.882;4.730;2022-07-26T05:47:32;18.30;99.90
8856;DHT22;4464;50.882;4.730;2022-07-26T05:49:59;18.20;99.90
8856;DHT22;4464;50.882;4.730;2022-07-26T05:52:27;18.10;99.90
8856;DHT22;4464;50.882;4.730;2022-07-26T05:54:55;18.10;99.90
8856;DHT22;4464;50.882;4.730;2022-07-26T05:57:23;18.10;99.90
8856;DHT22;4464;50.882;4.730;2022-07-26T05:59:49;18.00;99.90
8856;DHT22;4464;50.882;4.730;2022-07-26T06:02:15;18.00;99.90
8856;DHT22;4464;50.882;4.730;2022-07-26T06:04:40;18.00;99.90
8856;DHT22;4464;50.882;4.730;2022-07-26T06:07:06;18.10;99.90
8856;DHT22;4464;50.882;4.730;2022-07-26T06:09:32;18.10;99.90
8856;DHT22;4464;50.882;4.730;2022-07-26T06:12:00;18.10;99.90
8856;DHT22;4464;50.882;4.730;2022-07-26T06:14:26;18.10;99.90
8856;DHT22;4464;50.882;4.730;2022-07-26T06:16:52;18.10;99.90
8856;DHT22;4464;50.882;4.730;2022-07-26T06:19:19;18.10;99.90
8856;DHT22;4464;50.882;4.730;2022-07-26T06:21:45;18.20;99.90
8856;DHT22;4464;50.882;4.730;2022-07-26T06:24:12;18.30;99.90
8856;DHT22;4464;50.882;4.730;2022-07-26T06:26:41;18.40;99.90
8856;DHT22;4464;50.882;4.730;2022-07-26T06:29:11;18.50;99.90
8856;DHT22;4464;50.882;4.730;2022-07-26T06:31:39;18.60;99.90
8856;DHT22;4464;50.882;4.730;2022-07-26T06:34:07;18.70;99.90
8856;DHT22;4464;50.882;4.730;2022-07-26T06:36:34;18.90;99.90
8856;DHT22;4464;50.882;4.730;2022-07-26T06:39:00;19.10;99.90
8856;DHT22;4464;50.882;4.730;2022-07-26T06:41:26;19.20;99.90
8856;DHT22;4464;50.882;4.730;2022-07-26T06:43:52;19.40;99.90
8856;DHT22;4464;50.882;4.730;2022-07-26T06:46:20;19.60;99.90
8856;DHT22;4464;50.882;4.730;2022-07-26T06:48:49;19.90;99.90
8856;DHT22;4464;50.882;4.730;2022-07-26T06:51:15;20.20;99.90
8856;DHT22;4464;50.882;4.730;2022-07-26T06:53:41;20.30;99.90
8856;DHT22;4464;50.882;4.730;2022-07-26T06:56:09;20.50;99.90
8856;DHT22;4464;50.882;4.730;2022-07-26T06:58:44;20.60;99.90
8856;DHT22;4464;50.882;4.730;2022-07-26T07:01:10;20.90;99.90
8856;DHT22;4464;50.882;4.730;2022-07-26T07:03:36;21.10;99.90
8856;DHT22;4464;50.882;4.730;2022-07-26T07:06:04;21.30;99.90
8856;DHT22;4464;50.882;4.730;2022-07-26T07:08:31;21.30;99.90
8856;DHT22;4464;50.882;4.730;2022-07-26T07:10:57;21.00;99.90
8856;DHT22;4464;50.882;4.730;2022-07-26T07:13:25;21.00;99.90
8856;DHT22;4464;50.882;4.730;2022-07-26T07:15:53;20.90;99.90
8856;DHT22;4464;50.882;4.730;2022-07-26T07:18:19;20.90;99.90
8856;DHT22;4464;50.882;4.730;2022-07-26T07:20:45;20.90;99.90
8856;DHT22;4464;50.882;4.730;2022-07-26T07:23:11;20.70;99.90
8856;DHT22;4464;50.882;4.730;2022-07-26T07:25:36;20.50;99.90
8856;DHT22;4464;50.882;4.730;2022-07-26T07:28:04;20.40;99.90
8856;DHT22;4464;50.882;4.730;2022-07-26T07:30:30;20.30;99.90
8856;DHT22;4464;50.882;4.730;2022-07-26T07:32:56;20.30;99.90
8856;DHT22;4464;50.882;4.730;2022-07-26T07:35:24;20.20;99.90
8856;DHT22;4464;50.882;4.730;2022-07-26T07:37:50;20.30;99.90
8856;DHT22;4464;50.882;4.730;2022-07-26T07:40:18;20.30;99.90
8856;DHT22;4464;50.882;4.730;2022-07-26T07:42:46;20.30;99.90
8856;DHT22;4464;50.882;4.730;2022-07-26T07:45:15;20.20;99.90
8856;DHT22;4464;50.882;4.730;2022-07-26T07:47:41;20.00;99.90
8856;DHT22;4464;50.882;4.730;2022-07-26T07:50:07;19.90;99.90
8856;DHT22;4464;50.882;4.730;2022-07-26T07:52:32;19.90;99.90
8856;DHT22;4464;50.882;4.730;2022-07-26T07:55:01;19.90;99.90
8856;DHT22;4464;50.882;4.730;2022-07-26T07:57:27;19.90;99.90
8856;DHT22;4464;50.882;4.730;2022-07-26T07:59:55;19.90;99.90
8856;DHT22;4464;50.882;4.730;2022-07-26T08:02:21;19.90;99.90
8856;DHT22;4464;50.882;4.730;2022-07-26T08:04:49;19.90;99.90
8856;DHT22;4464;50.882;4.730;2022-07-26T08:07:15;19.90;99.90
8856;DHT22;4464;50.882;4.730;2022-07-26T08:09:43;19.80;99.90
8856;DHT22;4464;50.882;4.730;2022-07-26T08:12:11;19.90;99.90
8856;DHT22;4464;50.882;4.730;2022-07-26T08:14:38;20.00;99.90
8856;DHT22;4464;50.882;4.730;2022-07-26T08:17:06;20.00;99.90
8856;DHT22;4464;50.882;4.730;2022-07-26T08:19:31;20.00;99.90
8856;DHT22;4464;50.882;4.730;2022-07-26T08:21:58;19.90;99.90
8856;DHT22;4464;50.882;4.730;2022-07-26T08:24:26;19.90;99.90
8856;DHT22;4464;50.882;4.730;2022-07-26T08:26:52;20.00;99.90
8856;DHT22;4464;50.882;4.730;2022-07-26T08:29:23;19.90;99.90
8856;DHT22;4464;50.882;4.730;2022-07-26T08:31:48;20.00;99.90
8856;DHT22;4464;50.882;4.730;2022-07-26T08:34:15;20.10;99.90
8856;DHT22;4464;50.882;4.730;2022-07-26T08:36:43;20.10;99.90
8856;DHT22;4464;50.882;4.730;2022-07-26T08:39:11;20.10;99.90
8856;DHT22;4464;50.882;4.730;2022-07-26T08:41:40;20.30;99.90
8856;DHT22;4464;50.882;4.730;2022-07-26T08:44:10;20.40;99.90
8856;DHT22;4464;50.882;4.730;2022-07-26T08:46:40;20.50;99.90
8856;DHT22;4464;50.882;4.730;2022-07-26T08:49:08;20.70;99.90
8856;DHT22;4464;50.882;4.730;2022-07-26T08:51:38;20.90;99.90
8856;DHT22;4464;50.882;4.730;2022-07-26T08:54:05;21.10;99.90
8856;DHT22;4464;50.882;4.730;2022-07-26T08:56:39;21.30;99.90
8856;DHT22;4464;50.882;4.730;2022-07-26T08:59:12;21.30;99.90
8856;DHT22;4464;50.882;4.730;2022-07-26T09:01:57;21.40;99.90
8856;DHT22;4464;50.882;4.730;2022-07-26T09:04:37;21.70;99.90
8856;DHT22;4464;50.882;4.730;2022-07-26T09:07:08;21.90;99.90
8856;DHT22;4464;50.882;4.730;2022-07-26T09:09:54;22.10;99.90
8856;DHT22;4464;50.882;4.730;2022-07-26T09:12:22;21.90;99.90
8856;DHT22;4464;50.882;4.730;2022-07-26T09:14:48;21.80;99.90
8856;DHT22;4464;50.882;4.730;2022-07-26T09:17:16;21.80;99.90
8856;DHT22;4464;50.882;4.730;2022-07-26T09:19:46;21.90;99.90
8856;DHT22;4464;50.882;4.730;2022-07-26T09:22:27;22.00;99.90
8856;DHT22;4464;50.882;4.730;2022-07-26T09:24:55;22.00;99.90
8856;DHT22;4464;50.882;4.730;2022-07-26T09:27:34;21.80;99.90
8856;DHT22;4464;50.882;4.730;2022-07-26T09:30:07;21.70;99.90
8856;DHT22;4464;50.882;4.730;2022-07-26T09:32:35;21.80;99.90
8856;DHT22;4464;50.882;4.730;2022-07-26T09:35:10;22.20;99.90
8856;DHT22;4464;50.882;4.730;2022-07-26T09:37:41;22.60;99.90
8856;DHT22;4464;50.882;4.730;2022-07-26T09:40:15;22.50;99.90
8856;DHT22;4464;50.882;4.730;2022-07-26T09:43:05;22.80;99.90
8856;DHT22;4464;50.882;4.730;2022-07-26T09:45:33;23.20;99.90
8856;DHT22;4464;50.882;4.730;2022-07-26T09:48:02;23.20;99.90
8856;DHT22;4464;50.882;4.730;2022-07-26T09:50:31;23.40;99.90
8856;DHT22;4464;50.882;4.730;2022-07-26T09:53:10;24.10;99.90
8856;DHT22;4464;50.882;4.730;2022-07-26T09:58:04;24.10;99.90
8856;DHT22;4464;50.882;4.730;2022-07-26T10:00:32;24.70;99.90
8856;DHT22;4464;50.882;4.730;2022-07-26T10:03:00;24.10;99.90
8856;DHT22;4464;50.882;4.730;2022-07-26T10:05:27;24.20;99.90
8856;DHT22;4464;50.882;4.730;2022-07-26T10:07:53;25.60;99.90
8856;DHT22;4464;50.882;4.730;2022-07-26T10:10:24;26.30;99.90
8856;DHT22;4464;50.882;4.730;2022-07-26T10:12:52;27.70;99.90
8856;DHT22;4464;50.882;4.730;2022-07-26T10:15:49;28.60;99.80
8856;DHT22;4464;50.882;4.730;2022-07-26T10:23:44;26.50;99.90
8856;DHT22;4464;50.882;4.730;2022-07-26T10:26:34;26.30;99.90
8856;DHT22;4464;50.882;4.730;2022-07-26T10:29:21;25.90;99.90
8856;DHT22;4464;50.882;4.730;2022-07-26T10:31:49;25.50;99.90
8856;DHT22;4464;50.882;4.730;2022-07-26T10:34:35;25.60;99.90
8856;DHT22;4464;50.882;4.730;2022-07-26T10:37:04;25.20;99.90
8856;DHT22;4464;50.882;4.730;2022-07-26T10:39:31;24.50;99.90
8856;DHT22;4464;50.882;4.730;2022-07-26T10:42:02;23.70;99.90
8856;DHT22;4464;50.882;4.730;2022-07-26T10:44:30;23.40;99.90
8856;DHT22;4464;50.882;4.730;2022-07-26T10:49:35;23.30;99.90
8856;DHT22;4464;50.882;4.730;2022-07-26T10:57:30;23.50;99.90
8856;DHT22;4464;50.882;4.730;2022-07-26T10:59:57;23.80;99.90
8856;DHT22;4464;50.882;4.730;2022-07-26T11:02:28;24.20;99.90
8856;DHT22;4464;50.882;4.730;2022-07-26T11:07:55;24.10;99.90
8856;DHT22;4464;50.882;4.730;2022-07-26T11:10:33;24.10;99.90
8856;DHT22;4464;50.882;4.730;2022-07-26T11:13:00;23.90;99.90
8856;DHT22;4464;50.882;4.730;2022-07-26T11:15:27;23.80;99.90
8856;DHT22;4464;50.882;4.730;2022-07-26T11:18:15;23.50;99.90
8856;DHT22;4464;50.882;4.730;2022-07-26T11:20:44;23.20;99.90
8856;DHT22;4464;50.882;4.730;2022-07-26T11:31:16;22.20;99.90
8856;DHT22;4464;50.882;4.730;2022-07-26T11:33:49;22.00;99.90
8856;DHT22;4464;50.882;4.730;2022-07-26T11:36:40;21.80;99.90
8856;DHT22;4464;50.882;4.730;2022-07-26T11:39:11;21.90;99.90
8856;DHT22;4464;50.882;4.730;2022-07-26T11:41:43;22.00;99.90
8856;DHT22;4464;50.882;4.730;2022-07-26T11:44:20;22.00;99.90
8856;DHT22;4464;50.882;4.730;2022-07-26T11:46:49;22.30;99.90
8856;DHT22;4464;50.882;4.730;2022-07-26T11:49:23;22.40;99.90
8856;DHT22;4464;50.882;4.730;2022-07-26T11:51:57;22.80;99.90
8856;DHT22;4464;50.882;4.730;2022-07-26T11:54:25;22.60;99.90
8856;DHT22;4464;50.882;4.730;2022-07-26T11:56:58;22.60;99.90
8856;DHT22;4464;50.882;4.730;2022-07-26T11:59:29;22.70;99.90
8856;DHT22;4464;50.882;4.730;2022-07-26T12:01:56;22.80;99.90
8856;DHT22;4464;50.882;4.730;2022-07-26T12:04:30;23.10;99.90
8856;DHT22;4464;50.882;4.730;2022-07-26T12:07:07;23.30;99.90
8856;DHT22;4464;50.882;4.730;2022-07-26T12:09:36;23.50;99.90
8856;DHT22;4464;50.882;4.730;2022-07-26T12:12:05;23.90;99.90
8856;DHT22;4464;50.882;4.730;2022-07-26T12:14:36;24.20;99.90
8856;DHT22;4464;50.882;4.730;2022-07-26T12:17:23;24.50;99.90
8856;DHT22;4464;50.882;4.730;2022-07-26T12:19:48;24.50;99.90
8856;DHT22;4464;50.882;4.730;2022-07-26T12:22:21;24.60;99.90
8856;DHT22;4464;50.882;4.730;2022-07-26T12:27:17;24.50;99.90
8856;DHT22;4464;50.882;4.730;2022-07-26T12:29:50;23.70;99.90
8856;DHT22;4464;50.882;4.730;2022-07-26T12:32:29;23.00;99.90
8856;DHT22;4464;50.882;4.730;2022-07-26T12:34:59;23.10;99.90
8856;DHT22;4464;50.882;4.730;2022-07-26T12:37:33;22.70;99.90
8856;DHT22;4464;50.882;4.730;2022-07-26T12:42:37;22.20;99.90
8856;DHT22;4464;50.882;4.730;2022-07-26T12:45:06;22.30;99.90
8856;DHT22;4464;50.882;4.730;2022-07-26T12:47:36;22.40;99.90
8856;DHT22;4464;50.882;4.730;2022-07-26T12:50:07;22.60;99.90
8856;DHT22;4464;50.882;4.730;2022-07-26T12:52:36;22.70;99.90
8856;DHT22;4464;50.882;4.730;2022-07-26T12:55:03;22.90;99.90
8856;DHT22;4464;50.882;4.730;2022-07-26T12:57:29;23.20;99.90
8856;DHT22;4464;50.882;4.730;2022-07-26T12:59:56;23.20;99.90
8856;DHT22;4464;50.882;4.730;2022-07-26T13:02:25;23.20;99.90
8856;DHT22;4464;50.882;4.730;2022-07-26T13:04:55;23.10;99.90
8856;DHT22;4464;50.882;4.730;2022-07-26T13:07:23;22.70;99.90
8856;DHT22;4464;50.882;4.730;2022-07-26T13:09:49;22.60;99.90
8856;DHT22;4464;50.882;4.730;2022-07-26T13:12:15;22.70;99.90
8856;DHT22;4464;50.882;4.730;2022-07-26T13:14:43;23.20;99.90
8856;DHT22;4464;50.882;4.730;2022-07-26T13:17:10;24.00;99.90
8856;DHT22;4464;50.882;4.730;2022-07-26T13:19:37;24.00;99.90
8856;DHT22;4464;50.882;4.730;2022-07-26T13:22:05;24.00;99.90
8856;DHT22;4464;50.882;4.730;2022-07-26T13:24:32;23.40;99.90
8856;DHT22;4464;50.882;4.730;2022-07-26T13:26:58;23.10;99.90
8856;DHT22;4464;50.882;4.730;2022-07-26T13:29:27;23.10;99.90
8856;DHT22;4464;50.882;4.730;2022-07-26T13:31:57;22.80;99.90
8856;DHT22;4464;50.882;4.730;2022-07-26T13:34:24;22.80;99.90
8856;DHT22;4464;50.882;4.730;2022-07-26T13:36:50;23.00;99.90
8856;DHT22;4464;50.882;4.730;2022-07-26T13:39:17;22.90;99.90
8856;DHT22;4464;50.882;4.730;2022-07-26T13:41:44;23.00;99.90
8856;DHT22;4464;50.882;4.730;2022-07-26T13:44:12;23.10;99.90
8856;DHT22;4464;50.882;4.730;2022-07-26T13:46:37;23.60;99.90
8856;DHT22;4464;50.882;4.730;2022-07-26T13:49:04;23.20;99.90
8856;DHT22;4464;50.882;4.730;2022-07-26T13:51:34;23.00;99.90
8856;DHT22;4464;50.882;4.730;2022-07-26T13:54:19;22.70;99.90
8856;DHT22;4464;50.882;4.730;2022-07-26T13:56:47;23.30;99.90
8856;DHT22;4464;50.882;4.730;2022-07-26T13:59:14;24.10;99.90
8856;DHT22;4464;50.882;4.730;2022-07-26T14:01:40;24.80;99.90
8856;DHT22;4464;50.882;4.730;2022-07-26T14:04:08;25.30;99.90
8856;DHT22;4464;50.882;4.730;2022-07-26T14:06:37;26.20;99.90
8856;DHT22;4464;50.882;4.730;2022-07-26T14:09:06;26.90;99.90
8856;DHT22;4464;50.882;4.730;2022-07-26T14:11:32;26.30;99.90
8856;DHT22;4464;50.882;4.730;2022-07-26T14:13:58;27.00;99.90
8856;DHT22;4464;50.882;4.730;2022-07-26T14:16:24;26.10;99.90
8856;DHT22;4464;50.882;4.730;2022-07-26T14:18:53;24.40;99.90
8856;DHT22;4464;50.882;4.730;2022-07-26T14:21:30;24.40;99.90
8856;DHT22;4464;50.882;4.730;2022-07-26T14:24:00;24.50;99.90
8856;DHT22;4464;50.882;4.730;2022-07-26T14:26:30;24.70;99.90
8856;DHT22;4464;50.882;4.730;2022-07-26T14:28:56;23.90;99.90
8856;DHT22;4464;50.882;4.730;2022-07-26T14:31:22;23.50;99.90
8856;DHT22;4464;50.882;4.730;2022-07-26T14:33:48;23.50;99.90
8856;DHT22;4464;50.882;4.730;2022-07-26T14:36:17;23.50;99.90
8856;DHT22;4464;50.882;4.730;2022-07-26T14:38:42;24.00;99.90
8856;DHT22;4464;50.882;4.730;2022-07-26T14:41:09;24.30;99.90
8856;DHT22;4464;50.882;4.730;2022-07-26T14:43:36;24.90;99.90
8856;DHT22;4464;50.882;4.730;2022-07-26T14:46:03;24.30;99.90
8856;DHT22;4464;50.882;4.730;2022-07-26T14:48:31;24.70;99.90
8856;DHT22;4464;50.882;4.730;2022-07-26T14:51:00;25.20;99.90
8856;DHT22;4464;50.882;4.730;2022-07-26T14:53:27;25.10;99.90
8856;DHT22;4464;50.882;4.730;2022-07-26T14:55:55;24.80;99.90
8856;DHT22;4464;50.882;4.730;2022-07-26T14:58:23;25.00;99.90
8856;DHT22;4464;50.882;4.730;2022-07-26T15:00:50;24.20;99.90
8856;DHT22;4464;50.882;4.730;2022-07-26T15:03:16;24.60;99.90
8856;DHT22;4464;50.882;4.730;2022-07-26T15:05:42;25.60;99.90
8856;DHT22;4464;50.882;4.730;2022-07-26T15:08:09;26.60;99.90
8856;DHT22;4464;50.882;4.730;2022-07-26T15:10:34;26.00;99.90
8856;DHT22;4464;50.882;4.730;2022-07-26T15:13:02;26.00;99.90
8856;DHT22;4464;50.882;4.730;2022-07-26T15:15:28;24.70;99.90
8856;DHT22;4464;50.882;4.730;2022-07-26T15:17:57;23.30;99.90
8856;DHT22;4464;50.882;4.730;2022-07-26T15:20:26;22.90;99.90
8856;DHT22;4464;50.882;4.730;2022-07-26T15:22:52;23.10;99.90
8856;DHT22;4464;50.882;4.730;2022-07-26T15:25:19;23.30;99.90
8856;DHT22;4464;50.882;4.730;2022-07-26T15:27:46;22.90;99.90
8856;DHT22;4464;50.882;4.730;2022-07-26T15:30:13;22.70;99.90
8856;DHT22;4464;50.882;4.730;2022-07-26T15:32:39;22.60;99.90
8856;DHT22;4464;50.882;4.730;2022-07-26T15:35:07;22.80;99.90
8856;DHT22;4464;50.882;4.730;2022-07-26T15:37:37;23.00;99.90
8856;DHT22;4464;50.882;4.730;2022-07-26T15:40:04;22.90;99.90
8856;DHT22;4464;50.882;4.730;2022-07-26T15:42:31;23.30;99.90
8856;DHT22;4464;50.882;4.730;2022-07-26T15:44:59;24.10;99.90
8856;DHT22;4464;50.882;4.730;2022-07-26T15:47:25;24.50;99.90
8856;DHT22;4464;50.882;4.730;2022-07-26T15:49:51;24.00;99.90
8856;DHT22;4464;50.882;4.730;2022-07-26T15:52:16;23.60;99.90
8856;DHT22;4464;50.882;4.730;2022-07-26T15:54:44;23.30;99.90
8856;DHT22;4464;50.882;4.730;2022-07-26T15:57:10;23.20;99.90
8856;DHT22;4464;50.882;4.730;2022-07-26T15:59:38;22.60;99.90
8856;DHT22;4464;50.882;4.730;2022-07-26T16:02:09;22.50;99.90
8856;DHT22;4464;50.882;4.730;2022-07-26T16:04:35;22.50;99.90
8856;DHT22;4464;50.882;4.730;2022-07-26T16:07:01;23.00;99.90
8856;DHT22;4464;50.882;4.730;2022-07-26T16:09:27;24.00;99.90
8856;DHT22;4464;50.882;4.730;2022-07-26T16:11:54;25.10;99.90
8856;DHT22;4464;50.882;4.730;2022-07-26T16:14:20;26.70;99.90
8856;DHT22;4464;50.882;4.730;2022-07-26T16:16:47;27.40;99.90
8856;DHT22;4464;50.882;4.730;2022-07-26T16:19:13;26.90;99.80
8856;DHT22;4464;50.882;4.730;2022-07-26T16:21:39;25.50;99.90
8856;DHT22;4464;50.882;4.730;2022-07-26T16:24:07;24.00;99.90
8856;DHT22;4464;50.882;4.730;2022-07-26T16:26:33;23.70;99.90
8856;DHT22;4464;50.882;4.730;2022-07-26T16:28:59;23.30;99.90
8856;DHT22;4464;50.882;4.730;2022-07-26T16:31:27;22.80;99.90
8856;DHT22;4464;50.882;4.730;2022-07-26T16:33:54;23.30;99.90
8856;DHT22;4464;50.882;4.730;2022-07-26T16:36:22;24.20;99.90
8856;DHT22;4464;50.882;4.730;2022-07-26T16:38:48;25.60;99.90
8856;DHT22;4464;50.882;4.730;2022-07-26T16:41:14;26.60;99.90